sensor_id;sensor_type;location;lat;lon;timestamp;P1;durP1;ratioP1;P2;durP2;ratioP2
24301;SDS011;12421;49.732;20.078;2023-03-23T00:02:53;25.00;;;12.80;;
24301;SDS011;12421;49.732;20.078;2023-03-23T00:12:55;18.10;;;11.70;;
24301;SDS011;12421;49.732;20.078;2023-03-23T00:22:59;18.70;;;13.60;;
24301;SDS011;12421;49.732;20.078;2023-03-23T00:33:03;15.90;;;10.50;;
24301;SDS011;12421;49.732;20.078;2023-03-23T00:43:06;15.00;;;9.40;;
24301;SDS011;12421;49.732;20.078;2023-03-23T00:53:10;18.30;;;10.30;;
24301;SDS011;12421;49.732;20.078;2023-03-23T01:03:12;20.50;;;9.40;;
24301;SDS011;12421;49.732;20.078;2023-03-23T01:13:21;14.00;;;10.50;;
24301;SDS011;12421;49.732;20.078;2023-03-23T01:23:32;12.30;;;8.40;;
24301;SDS011;12421;49.732;20.078;2023-03-23T01:33:37;15.20;;;9.20;;
24301;SDS011;12421;49.732;20.078;2023-03-23T01:43:59;12.30;;;8.20;;
24301;SDS011;12421;49.732;20.078;2023-03-23T01:54:07;13.10;;;10.50;;
24301;SDS011;12421;49.732;20.078;2023-03-23T02:04:15;14.10;;;9.80;;
24301;SDS011;12421;49.732;20.078;2023-03-23T02:14:19;13.10;;;9.20;;
24301;SDS011;12421;49.732;20.078;2023-03-23T02:35:15;15.30;;;11.20;;
24301;SDS011;12421;49.732;20.078;2023-03-23T02:45:20;12.10;;;8.30;;
24301;SDS011;12421;49.732;20.078;2023-03-23T02:55:27;13.60;;;8.10;;
24301;SDS011;12421;49.732;20.078;2023-03-23T03:26:40;12.60;;;8.20;;
24301;SDS011;12421;49.732;20.078;2023-03-23T03:36:55;12.30;;;9.60;;
24301;SDS011;12421;49.732;20.078;2023-03-23T03:47:00;11.50;;;8.20;;
24301;SDS011;12421;49.732;20.078;2023-03-23T03:57:04;12.70;;;8.70;;
24301;SDS011;12421;49.732;20.078;2023-03-23T04:07:27;14.20;;;10.80;;
24301;SDS011;12421;49.732;20.078;2023-03-23T04:17:33;14.20;;;10.90;;
24301;SDS011;12421;49.732;20.078;2023-03-23T04:27:36;12.70;;;8.30;;
24301;SDS011;12421;49.732;20.078;2023-03-23T04:37:41;11.70;;;9.00;;
24301;SDS011;12421;49.732;20.078;2023-03-23T04:47:45;15.50;;;8.80;;
24301;SDS011;12421;49.732;20.078;2023-03-23T04:57:57;10.10;;;7.90;;
24301;SDS011;12421;49.732;20.078;2023-03-23T05:08:16;11.10;;;8.30;;
24301;SDS011;12421;49.732;20.078;2023-03-23T05:18:20;14.30;;;8.50;;
24301;SDS011;12421;49.732;20.078;2023-03-23T05:28:22;13.10;;;10.40;;
24301;SDS011;12421;49.732;20.078;2023-03-23T05:38:43;11.50;;;7.70;;
24301;SDS011;12421;49.732;20.078;2023-03-23T05:48:50;18.20;;;9.80;;
24301;SDS011;12421;49.732;20.078;2023-03-23T05:58:54;9.30;;;7.30;;
24301;SDS011;12421;49.732;20.078;2023-03-23T06:08:57;11.10;;;8.40;;
24301;SDS011;12421;49.732;20.078;2023-03-23T06:19:20;15.70;;;10.30;;
24301;SDS011;12421;49.732;20.078;2023-03-23T06:29:31;12.90;;;7.30;;
24301;SDS011;12421;49.732;20.078;2023-03-23T06:39:34;7.70;;;5.10;;
24301;SDS011;12421;49.732;20.078;2023-03-23T06:49:57;8.10;;;5.20;;
24301;SDS011;12421;49.732;20.078;2023-03-23T07:00:01;11.10;;;6.20;;
24301;SDS011;12421;49.732;20.078;2023-03-23T07:10:17;6.60;;;4.30;;
24301;SDS011;12421;49.732;20.078;2023-03-23T07:20:20;6.20;;;3.70;;
24301;SDS011;12421;49.732;20.078;2023-03-23T07:30:23;6.30;;;4.20;;
24301;SDS011;12421;49.732;20.078;2023-03-23T07:40:27;7.50;;;3.60;;
24301;SDS011;12421;49.732;20.078;2023-03-23T07:50:35;7.40;;;4.10;;
24301;SDS011;12421;49.732;20.078;2023-03-23T08:00:42;5.30;;;3.30;;
24301;SDS011;12421;49.732;20.078;2023-03-23T08:10:45;5.50;;;3.10;;
24301;SDS011;12421;49.732;20.078;2023-03-23T08:21:13;4.10;;;2.90;;
24301;SDS011;12421;49.732;20.078;2023-03-23T08:31:38;6.30;;;3.60;;
24301;SDS011;12421;49.732;20.078;2023-03-23T08:42:00;6.80;;;3.10;;
24301;SDS011;12421;49.732;20.078;2023-03-23T08:52:21;5.60;;;3.20;;
24301;SDS011;12421;49.732;20.078;2023-03-23T09:02:42;7.30;;;5.00;;
24301;SDS011;12421;49.732;20.078;2023-03-23T09:12:54;6.80;;;3.10;;
24301;SDS011;12421;49.732;20.078;2023-03-23T09:22:57;4.00;;;2.60;;
24301;SDS011;12421;49.732;20.078;2023-03-23T09:33:00;4.90;;;2.90;;
24301;SDS011;12421;49.732;20.078;2023-03-23T09:53:19;5.10;;;2.80;;
24301;SDS011;12421;49.732;20.078;2023-03-23T10:03:39;5.80;;;2.80;;
24301;SDS011;12421;49.732;20.078;2023-03-23T10:24:17;4.30;;;2.50;;
24301;SDS011;12421;49.732;20.078;2023-03-23T10:34:31;5.80;;;2.90;;
24301;SDS011;12421;49.732;20.078;2023-03-23T10:44:38;4.00;;;2.30;;
24301;SDS011;12421;49.732;20.078;2023-03-23T10:54:46;3.30;;;2.30;;
24301;SDS011;12421;49.732;20.078;2023-03-23T11:05:00;4.60;;;2.70;;
24301;SDS011;12421;49.732;20.078;2023-03-23T11:25:33;4.90;;;2.60;;
24301;SDS011;12421;49.732;20.078;2023-03-23T11:35:36;8.60;;;2.70;;
24301;SDS011;12421;49.732;20.078;2023-03-23T11:45:39;3.70;;;2.80;;
24301;SDS011;12421;49.732;20.078;2023-03-23T12:06:03;4.20;;;2.80;;
24301;SDS011;12421;49.732;20.078;2023-03-23T12:57:21;4.30;;;2.10;;
24301;SDS011;12421;49.732;20.078;2023-03-23T13:07:34;4.30;;;2.10;;
24301;SDS011;12421;49.732;20.078;2023-03-23T13:17:46;4.30;;;2.30;;
24301;SDS011;12421;49.732;20.078;2023-03-23T13:28:12;4.40;;;2.20;;
24301;SDS011;12421;49.732;20.078;2023-03-23T13:38:26;3.10;;;1.90;;
24301;SDS011;12421;49.732;20.078;2023-03-23T13:48:39;6.60;;;2.40;;
24301;SDS011;12421;49.732;20.078;2023-03-23T13:58:49;3.80;;;2.10;;
24301;SDS011;12421;49.732;20.078;2023-03-23T14:09:14;3.30;;;1.50;;
24301;SDS011;12421;49.732;20.078;2023-03-23T14:19:23;2.90;;;1.20;;
24301;SDS011;12421;49.732;20.078;2023-03-23T14:29:28;3.90;;;1.00;;
24301;SDS011;12421;49.732;20.078;2023-03-23T14:39:31;3.50;;;1.30;;
24301;SDS011;12421;49.732;20.078;2023-03-23T14:49:39;4.20;;;1.90;;
24301;SDS011;12421;49.732;20.078;2023-03-23T14:59:47;8.90;;;4.10;;
24301;SDS011;12421;49.732;20.078;2023-03-23T15:09:50;6.90;;;2.80;;
24301;SDS011;12421;49.732;20.078;2023-03-23T15:19:52;5.40;;;2.70;;
24301;SDS011;12421;49.732;20.078;2023-03-23T15:29:56;11.40;;;4.60;;
24301;SDS011;12421;49.732;20.078;2023-03-23T15:40:02;10.10;;;4.30;;
24301;SDS011;12421;49.732;20.078;2023-03-23T15:50:17;11.60;;;6.40;;
24301;SDS011;12421;49.732;20.078;2023-03-23T16:00:26;14.40;;;7.50;;
24301;SDS011;12421;49.732;20.078;2023-03-23T16:10:32;30.90;;;12.80;;
24301;SDS011;12421;49.732;20.078;2023-03-23T16:20:35;12.70;;;7.20;;
24301;SDS011;12421;49.732;20.078;2023-03-23T16:30:39;13.10;;;8.20;;
24301;SDS011;12421;49.732;20.078;2023-03-23T16:40:44;11.40;;;6.30;;
24301;SDS011;12421;49.732;20.078;2023-03-23T16:50:48;5.90;;;4.00;;
24301;SDS011;12421;49.732;20.078;2023-03-23T17:00:53;8.80;;;4.80;;
24301;SDS011;12421;49.732;20.078;2023-03-23T17:10:56;3.40;;;2.30;;
24301;SDS011;12421;49.732;20.078;2023-03-23T17:21:00;9.90;;;5.70;;
24301;SDS011;12421;49.732;20.078;2023-03-23T17:31:03;12.00;;;6.30;;
24301;SDS011;12421;49.732;20.078;2023-03-23T17:41:08;10.30;;;5.80;;
24301;SDS011;12421;49.732;20.078;2023-03-23T17:51:13;10.60;;;5.50;;
24301;SDS011;12421;49.732;20.078;2023-03-23T18:01:17;10.10;;;6.00;;
24301;SDS011;12421;49.732;20.078;2023-03-23T18:11:20;12.60;;;7.40;;
24301;SDS011;12421;49.732;20.078;2023-03-23T18:21:23;8.90;;;4.60;;
24301;SDS011;12421;49.732;20.078;2023-03-23T18:31:29;10.10;;;5.40;;
24301;SDS011;12421;49.732;20.078;2023-03-23T18:41:32;8.00;;;5.10;;
24301;SDS011;12421;49.732;20.078;2023-03-23T18:51:36;7.40;;;4.50;;
24301;SDS011;12421;49.732;20.078;2023-03-23T19:01:39;7.90;;;4.90;;
24301;SDS011;12421;49.732;20.078;2023-03-23T19:11:44;9.10;;;5.40;;
24301;SDS011;12421;49.732;20.078;2023-03-23T19:21:48;7.50;;;4.60;;
24301;SDS011;12421;49.732;20.078;2023-03-23T19:31:52;7.40;;;4.50;;
24301;SDS011;12421;49.732;20.078;2023-03-23T19:41:57;8.30;;;4.40;;
24301;SDS011;12421;49.732;20.078;2023-03-23T19:52:01;8.20;;;5.30;;
24301;SDS011;12421;49.732;20.078;2023-03-23T20:02:12;7.30;;;4.90;;
24301;SDS011;12421;49.732;20.078;2023-03-23T20:12:16;7.60;;;4.60;;
24301;SDS011;12421;49.732;20.078;2023-03-23T20:22:20;8.60;;;5.20;;
24301;SDS011;12421;49.732;20.078;2023-03-23T20:32:24;6.90;;;4.20;;
24301;SDS011;12421;49.732;20.078;2023-03-23T20:42:28;7.20;;;4.10;;
24301;SDS011;12421;49.732;20.078;2023-03-23T20:52:31;7.30;;;4.50;;
24301;SDS011;12421;49.732;20.078;2023-03-23T21:02:34;7.80;;;4.30;;
24301;SDS011;12421;49.732;20.078;2023-03-23T21:12:38;6.40;;;4.20;;
24301;SDS011;12421;49.732;20.078;2023-03-23T21:22:42;7.10;;;4.60;;
24301;SDS011;12421;49.732;20.078;2023-03-23T21:32:45;8.40;;;4.40;;
24301;SDS011;12421;49.732;20.078;2023-03-23T21:42:49;6.20;;;4.30;;
24301;SDS011;12421;49.732;20.078;2023-03-23T21:52:54;8.60;;;4.60;;
24301;SDS011;12421;49.732;20.078;2023-03-23T22:02:57;8.70;;;4.70;;
24301;SDS011;12421;49.732;20.078;2023-03-23T22:13:00;7.40;;;3.90;;
24301;SDS011;12421;49.732;20.078;2023-03-23T22:23:03;5.50;;;3.50;;
24301;SDS011;12421;49.732;20.078;2023-03-23T22:33:07;6.30;;;3.50;;
24301;SDS011;12421;49.732;20.078;2023-03-23T22:43:10;5.70;;;3.20;;
24301;SDS011;12421;49.732;20.078;2023-03-23T22:53:14;6.00;;;3.60;;
24301;SDS011;12421;49.732;20.078;2023-03-23T23:03:18;8.20;;;3.50;;
24301;SDS011;12421;49.732;20.078;2023-03-23T23:13:22;5.20;;;3.10;;
24301;SDS011;12421;49.732;20.078;2023-03-23T23:23:26;4.60;;;3.20;;
24301;SDS011;12421;49.732;20.078;2023-03-23T23:33:31;6.30;;;3.30;;
24301;SDS011;12421;49.732;20.078;2023-03-23T23:43:34;4.60;;;3.10;;
24301;SDS011;12421;49.732;20.078;2023-03-23T23:53:37;5.00;;;3.30;;
